Coeur D'Alene - Pappy Boyington Field
KCOE : now visible

Airfield :











YOU CAN JOIN US ON...

 
LOGIN :

Register | Disclaimer

   EN    FR    IT 

 









Legend :    VFR   Marginal VFR   IFR   Intensive IFR   Very Intensive IFR
Visi :
Ceiling :
>= 8 km
>= 3000ft
5 to 8 km
1000 to 3000 ft
1500m to 5 km
500 to 1000 ft
800 to 1500m
200 to 500 ft
< 800m
< 200 ft
Symbols :   Thunderstorms  Fog  Heavy snow  Heavy precipitations  Wind > 20 kt






- Airport Elevation : 2320 ft


KCOE - Coeur D'Alene - Pappy Boyington Field

CURRENT METAR :
  • 031356Z AUTO 20005KT 10SM CLR 17/08 A3008 RMK AO2 SLP183 T01670083

EXPIRED METARs :
  • 031256Z AUTO 20004KT 10SM CLR 16/07 A3007 RMK AO2 SLP179 T01560072
  • 031156Z AUTO 17007KT 10SM CLR 18/07 A3005 RMK AO2 SLP171 T01830072 10206 20156 53018

TAF KCOE
Valid from the 03 at 12:00 until the 04 at 12:00 UTC


031122Z 0312/0412 19007KT P6SM FEW100 BKN250
FM031800 22010KT P6SM FEW060
FM040400 14006KT P6SM SKC
KZSE FIR / North America



MET'MAP, your aeronautical weather chart ! - Copyright ORBIFLY December 2007 - Disclaimer

ORBIFLY MET'MAP TEAM :

Programming & Development : Alexandra Zaïnal
Concept & original design : Baudouin d'Aumeries
Assistance for programming : Marc-Olivier Méhu
Technical & hardware support : Manuel Goepfert

Contact : metmap@orbifly.com




SOURCES & CREDITS :

   NOAA       Earth
Advisory